Terminal Aerodrome Forecast
Issued by NWS Cleveland, OH

Home | Current Version | Previous Version | Graphics & Text | Print | Product List | Glossary On
Versions: 1 2 3 4 5 6 7 8 9 10 11 12 13 14 15 16 17 18 19 20 21 22 23 24 25 26 27 28 29 30 31
000
FTUS41 KCLE 191746
TAFCLE
TAF
KCLE 191746Z 1918/2024 18012G20KT P6SM -RA OVC020 WS020/22045KT
     FM191900 20014G22KT P6SM -SHRA OVC015 WS020/22045KT
      TEMPO 1919/1923 18012KT 3SM RA
     FM200000 20014G22KT P6SM -SHRA BKN025 WS020/22045KT
      TEMPO 2003/2006 BKN035
     FM201500 21017G25KT P6SM OVC015
     FM202000 21018G28KT P6SM OVC045=

USA.gov is the U.S. government's official web portal to all federal, state and local government web resources and services.